Time;durP1;ratioP1;P1;durP2;ratioP2;P2;SDS_P1;SDS_P2;PMS_P1;PMS_P2;Temp;Humidity;BMP_temperature;BMP_pressure;BME280_temperature;BME280_humidity;BME280_pressure;Samples;Min_cycle;Max_cycle;Signal;HPM_P1;HPM_P2
2021/07/04 00:00:13;;;;;;;9.03;8.23;;;;;;;;;;5073413;28;20477;-68
2021/07/04 00:02:40;;;;;;;12.47;11.27;;;;;;;;;;5073111;28;20441;-68
2021/07/04 00:05:10;;;;;;;11.20;10.07;;;;;;;;;;5073477;28;20808;-68
2021/07/04 00:07:41;;;;;;;11.50;10.40;;;;;;;;;;5073105;28;20437;-68
2021/07/04 00:10:09;;;;;;;13.33;12.03;;;;;;;;;;5073122;28;20444;-68
2021/07/04 00:12:36;;;;;;;13.67;12.37;;;;;;;;;;5073346;28;20442;-68
2021/07/04 00:15:03;;;;;;;14.37;12.67;;;;;;;;;;5073594;28;20443;-68
2021/07/04 00:17:30;;;;;;;13.47;12.07;;;;;;;;;;5072833;28;20930;-69
2021/07/04 00:19:58;;;;;;;13.50;11.67;;;;;;;;;;5073185;28;20572;-68
2021/07/04 00:22:26;;;;;;;13.73;12.17;;;;;;;;;;5072898;28;20472;-68
2021/07/04 00:24:53;;;;;;;12.10;10.80;;;;;;;;;;5073232;28;20441;-68
2021/07/04 00:27:21;;;;;;;12.63;11.33;;;;;;;;;;5075020;28;20438;-68
2021/07/04 00:29:48;;;;;;;11.27;10.17;;;;;;;;;;5077009;28;20455;-68
2021/07/04 00:32:15;;;;;;;12.07;10.97;;;;;;;;;;5076983;28;20445;-69
2021/07/04 00:34:42;;;;;;;12.70;10.50;;;;;;;;;;5076678;28;20981;-68
2021/07/04 00:37:09;;;;;;;11.90;10.10;;;;;;;;;;5076937;28;20449;-69
2021/07/04 00:39:38;;;;;;;11.10;10.10;;;;;;;;;;5076896;28;20476;-69
2021/07/04 00:42:05;;;;;;;12.13;10.63;;;;;;;;;;5076515;28;20527;-69
2021/07/04 00:44:33;;;;;;;11.50;10.30;;;;;;;;;;5076853;28;20490;-69
2021/07/04 00:47:00;;;;;;;11.50;10.47;;;;;;;;;;5076562;28;20474;-69
2021/07/04 00:49:27;;;;;;;10.80;9.90;;;;;;;;;;5076795;28;20479;-69
2021/07/04 00:51:54;;;;;;;11.00;9.80;;;;;;;;;;5077378;28;20437;-69
2021/07/04 00:54:22;;;;;;;11.57;10.47;;;;;;;;;;5076586;28;20432;-69
2021/07/04 00:56:50;;;;;;;10.60;9.60;;;;;;;;;;5076253;28;20469;-69
2021/07/04 00:59:17;;;;;;;11.00;9.87;;;;;;;;;;5076217;28;20480;-69
2021/07/04 01:01:45;;;;;;;9.30;8.40;;;;;;;;;;5076405;28;20440;-69
2021/07/04 01:04:12;;;;;;;10.67;9.53;;;;;;;;;;5076504;28;20519;-69
2021/07/04 01:06:39;;;;;;;10.90;9.90;;;;;;;;;;5076707;28;20448;-69
2021/07/04 01:09:07;;;;;;;10.90;10.00;;;;;;;;;;5076005;28;20961;-68
2021/07/04 01:11:34;;;;;;;11.90;10.80;;;;;;;;;;5076419;28;20447;-68
2021/07/04 01:14:03;;;;;;;11.13;9.83;;;;;;;;;;5076193;28;20436;-69
2021/07/04 01:16:30;;;;;;;11.33;10.23;;;;;;;;;;5076150;28;20447;-68
2021/07/04 01:18:58;;;;;;;10.77;9.70;;;;;;;;;;5076062;28;20484;-68
2021/07/04 01:21:26;;;;;;;11.60;10.37;;;;;;;;;;5076283;28;20445;-68
2021/07/04 01:23:54;;;;;;;12.40;10.80;;;;;;;;;;5075769;28;20445;-68
2021/07/04 01:26:21;;;;;;;18.73;10.00;;;;;;;;;;5076099;28;20434;-68
2021/07/04 01:28:48;;;;;;;15.20;11.10;;;;;;;;;;5075974;28;20441;-69
2021/07/04 01:31:16;;;;;;;15.07;12.20;;;;;;;;;;5075964;28;20469;-69
2021/07/04 01:33:43;;;;;;;11.27;10.20;;;;;;;;;;5075881;28;20476;-69
2021/07/04 01:36:11;;;;;;;11.73;10.57;;;;;;;;;;5076369;28;20521;-68
2021/07/04 01:38:38;;;;;;;13.00;11.70;;;;;;;;;;5074556;28;20486;-68
2021/07/04 01:41:07;;;;;;;14.00;12.50;;;;;;;;;;5075420;28;20446;-68
2021/07/04 01:43:35;;;;;;;13.70;11.40;;;;;;;;;;5075747;28;20903;-68
2021/07/04 01:46:02;;;;;;;14.77;13.00;;;;;;;;;;5075188;28;20468;-68
2021/07/04 01:48:29;;;;;;;12.87;11.60;;;;;;;;;;5075657;28;20509;-68
2021/07/04 01:50:56;;;;;;;13.17;11.83;;;;;;;;;;5075737;28;20441;-69
2021/07/04 01:53:24;;;;;;;12.50;11.30;;;;;;;;;;5075182;28;20523;-68
2021/07/04 01:55:51;;;;;;;12.47;11.23;;;;;;;;;;5075474;28;20441;-68
2021/07/04 01:58:20;;;;;;;12.60;11.27;;;;;;;;;;5075808;28;20444;-68
2021/07/04 02:00:47;;;;;;;13.67;12.27;;;;;;;;;;5075274;28;20487;-68
2021/07/04 02:03:14;;;;;;;14.53;11.33;;;;;;;;;;5075312;28;20441;-68
2021/07/04 02:05:42;;;;;;;13.07;11.87;;;;;;;;;;5075363;28;20432;-68
2021/07/04 02:08:09;;;;;;;12.50;11.30;;;;;;;;;;5075177;28;20436;-68
2021/07/04 02:10:38;;;;;;;12.20;10.97;;;;;;;;;;5074816;28;20445;-68
2021/07/04 02:13:06;;;;;;;12.97;11.10;;;;;;;;;;5075234;28;20529;-68
2021/07/04 02:15:36;;;;;;;13.97;11.60;;;;;;;;;;5074964;28;20524;-69
2021/07/04 02:18:06;;;;;;;12.73;11.00;;;;;;;;;;5075084;28;20468;-68
2021/07/04 02:20:36;;;;;;;11.33;10.23;;;;;;;;;;5074621;28;20481;-68
2021/07/04 02:23:05;;;;;;;12.00;10.90;;;;;;;;;;5075585;28;20520;-68
2021/07/04 02:25:32;;;;;;;12.50;11.40;;;;;;;;;;5075311;28;20445;-68
2021/07/04 02:28:00;;;;;;;11.07;10.07;;;;;;;;;;5074859;28;20445;-68
2021/07/04 02:30:27;;;;;;;13.53;10.87;;;;;;;;;;5074832;28;20535;-68
2021/07/04 02:32:56;;;;;;;11.47;10.30;;;;;;;;;;5074725;28;20488;-68
2021/07/04 02:35:24;;;;;;;15.23;11.67;;;;;;;;;;5075315;28;20472;-68
2021/07/04 02:37:51;;;;;;;13.90;11.30;;;;;;;;;;5074350;28;20448;-68
2021/07/04 02:40:18;;;;;;;12.87;11.57;;;;;;;;;;5075316;28;20487;-68
2021/07/04 02:42:45;;;;;;;11.90;10.70;;;;;;;;;;5074423;28;20834;-68
2021/07/04 02:45:12;;;;;;;12.00;10.83;;;;;;;;;;5074544;28;20442;-69
2021/07/04 02:47:40;;;;;;;12.60;11.40;;;;;;;;;;5075075;28;20811;-68
2021/07/04 02:50:10;;;;;;;11.47;10.13;;;;;;;;;;5074160;28;20443;-69
2021/07/04 02:52:37;;;;;;;12.20;11.10;;;;;;;;;;5074082;28;20449;-68
2021/07/04 02:55:05;;;;;;;14.10;12.67;;;;;;;;;;5074304;28;20440;-69
2021/07/04 02:57:32;;;;;;;12.73;11.43;;;;;;;;;;5073945;28;20949;-68
2021/07/04 02:59:59;;;;;;;13.33;11.93;;;;;;;;;;5074614;28;20527;-68
2021/07/04 03:02:27;;;;;;;15.57;11.93;;;;;;;;;;5073894;28;20456;-68
2021/07/04 03:04:54;;;;;;;14.50;11.67;;;;;;;;;;5073848;28;20531;-69
2021/07/04 03:07:23;;;;;;;15.13;11.30;;;;;;;;;;5074129;28;20443;-69
2021/07/04 03:09:50;;;;;;;14.63;12.80;;;;;;;;;;5074056;28;20444;-68
2021/07/04 03:12:17;;;;;;;11.97;10.70;;;;;;;;;;5073934;28;20807;-69
2021/07/04 03:14:45;;;;;;;13.50;12.10;;;;;;;;;;5074139;28;20463;-69
2021/07/04 03:17:12;;;;;;;13.50;12.13;;;;;;;;;;5074077;28;20444;-68
2021/07/04 03:19:39;;;;;;;11.70;10.60;;;;;;;;;;5073544;28;20477;-68
2021/07/04 03:22:06;;;;;;;13.77;11.43;;;;;;;;;;5073578;28;21003;-69
2021/07/04 03:24:35;;;;;;;13.00;11.57;;;;;;;;;;5073794;28;20499;-68
2021/07/04 03:27:02;;;;;;;13.83;12.43;;;;;;;;;;5073808;28;20443;-68
2021/07/04 03:29:30;;;;;;;13.37;12.07;;;;;;;;;;5073742;28;20445;-68
2021/07/04 03:31:57;;;;;;;14.60;12.70;;;;;;;;;;5073904;28;20544;-68
2021/07/04 03:34:24;;;;;;;15.60;13.87;;;;;;;;;;5073425;28;21001;-68
2021/07/04 03:36:51;;;;;;;15.97;11.97;;;;;;;;;;5073400;28;20473;-68
2021/07/04 03:39:19;;;;;;;13.43;12.20;;;;;;;;;;5073542;28;20788;-68
2021/07/04 03:41:47;;;;;;;16.60;13.47;;;;;;;;;;5073694;28;20440;-68
2021/07/04 03:44:14;;;;;;;14.50;13.03;;;;;;;;;;5073919;28;20804;-68
2021/07/04 03:46:42;;;;;;;14.20;11.90;;;;;;;;;;5073840;28;20516;-68
2021/07/04 03:49:09;;;;;;;14.60;12.23;;;;;;;;;;5073936;28;20855;-69
2021/07/04 03:51:36;;;;;;;14.17;12.77;;;;;;;;;;5073263;28;20499;-69
2021/07/04 03:54:04;;;;;;;16.03;14.40;;;;;;;;;;5073457;28;20445;-69
2021/07/04 03:56:31;;;;;;;16.60;15.00;;;;;;;;;;5073320;28;20461;-68
2021/07/04 03:59:00;;;;;;;17.47;15.20;;;;;;;;;;5073512;28;20516;-68
2021/07/04 04:01:27;;;;;;;15.93;14.30;;;;;;;;;;5073441;28;20472;-69
2021/07/04 04:03:54;;;;;;;22.03;14.40;;;;;;;;;;5077322;28;20468;-68
2021/07/04 04:06:22;;;;;;;16.77;14.53;;;;;;;;;;5077590;28;20433;-68
2021/07/04 04:08:49;;;;;;;14.53;13.10;;;;;;;;;;5077105;28;21040;-68
2021/07/04 04:11:16;;;;;;;14.83;12.50;;;;;;;;;;5078034;28;20451;-68
2021/07/04 04:13:43;;;;;;;17.77;13.40;;;;;;;;;;5077123;28;20528;-68
2021/07/04 04:16:12;;;;;;;13.63;11.90;;;;;;;;;;5077326;28;20560;-68
2021/07/04 04:18:39;;;;;;;15.37;13.70;;;;;;;;;;5077880;28;20448;-69
2021/07/04 04:21:06;;;;;;;15.80;14.20;;;;;;;;;;5076867;28;21021;-68
2021/07/04 04:23:34;;;;;;;16.13;14.40;;;;;;;;;;5077257;28;20441;-68
2021/07/04 04:26:01;;;;;;;15.67;14.10;;;;;;;;;;5077492;28;20789;-68
2021/07/04 04:28:29;;;;;;;15.80;14.10;;;;;;;;;;5076865;28;20441;-68
2021/07/04 04:30:56;;;;;;;17.87;14.90;;;;;;;;;;5077213;28;20448;-69
2021/07/04 04:33:24;;;;;;;16.80;14.90;;;;;;;;;;5077044;28;20858;-69
2021/07/04 04:35:52;;;;;;;18.70;15.53;;;;;;;;;;5076677;28;20447;-68
2021/07/04 04:38:19;;;;;;;16.17;14.60;;;;;;;;;;5077151;28;20441;-68
2021/07/04 04:40:46;;;;;;;18.60;15.40;;;;;;;;;;5077046;28;20472;-68
2021/07/04 04:43:13;;;;;;;16.23;14.27;;;;;;;;;;5076580;28;20440;-68
2021/07/04 04:45:41;;;;;;;18.00;16.10;;;;;;;;;;5074653;28;20593;-68
2021/07/04 04:48:08;;;;;;;19.17;15.27;;;;;;;;;;5065276;28;20491;-68
2021/07/04 04:50:37;;;;;;;17.10;15.20;;;;;;;;;;5056616;28;20805;-68
2021/07/04 04:53:04;;;;;;;17.30;15.27;;;;;;;;;;5056308;28;20969;-68
2021/07/04 04:55:32;;;;;;;18.13;14.90;;;;;;;;;;5056459;28;20446;-68
2021/07/04 04:57:59;;;;;;;18.73;15.50;;;;;;;;;;5056150;28;20446;-68
2021/07/04 05:00:26;;;;;;;17.40;15.10;;;;;;;;;;5056204;28;20468;-68
2021/07/04 05:02:54;;;;;;;18.17;15.20;;;;;;;;;;5056405;28;20524;-68
2021/07/04 05:05:21;;;;;;;15.73;14.10;;;;;;;;;;5056066;28;20472;-68
2021/07/04 05:07:50;;;;;;;17.37;14.43;;;;;;;;;;5056566;28;20452;-68
2021/07/04 05:10:17;;;;;;;18.43;16.30;;;;;;;;;;5056084;28;20517;-68
2021/07/04 05:12:44;;;;;;;16.77;14.83;;;;;;;;;;5056151;28;20441;-68
2021/07/04 05:15:11;;;;;;;18.00;16.10;;;;;;;;;;5056143;28;20455;-68
2021/07/04 05:17:39;;;;;;;16.87;15.07;;;;;;;;;;5075427;28;20437;-68
2021/07/04 05:20:07;;;;;;;19.43;14.60;;;;;;;;;;5076669;28;20484;-68
2021/07/04 05:22:34;;;;;;;18.80;14.60;;;;;;;;;;5075757;28;21018;-68
2021/07/04 05:25:03;;;;;;;20.13;16.10;;;;;;;;;;5075707;28;20441;-68
2021/07/04 05:27:31;;;;;;;16.53;14.80;;;;;;;;;;5076016;28;20476;-68
2021/07/04 05:29:58;;;;;;;20.37;15.70;;;;;;;;;;5075990;28;20471;-68
2021/07/04 05:32:25;;;;;;;18.13;14.73;;;;;;;;;;5076042;28;20437;-68
2021/07/04 05:34:53;;;;;;;18.43;16.57;;;;;;;;;;5075914;28;20945;-68
2021/07/04 05:37:20;;;;;;;17.93;16.00;;;;;;;;;;5075842;28;20921;-68
2021/07/04 05:39:47;;;;;;;16.87;15.07;;;;;;;;;;5075389;28;20495;-68
2021/07/04 05:42:16;;;;;;;17.17;15.37;;;;;;;;;;5075674;28;20528;-68
2021/07/04 05:44:43;;;;;;;16.50;14.80;;;;;;;;;;5075761;28;21038;-68
2021/07/04 05:47:10;;;;;;;19.37;16.40;;;;;;;;;;5074955;28;20576;-68
2021/07/04 05:49:38;;;;;;;17.30;14.53;;;;;;;;;;5075543;28;20494;-68
2021/07/04 05:52:07;;;;;;;18.60;15.47;;;;;;;;;;5075516;28;20441;-68
2021/07/04 05:54:34;;;;;;;16.40;14.17;;;;;;;;;;5075481;28;20512;-68
2021/07/04 05:57:05;;;;;;;16.57;14.87;;;;;;;;;;5075159;28;20469;-69
2021/07/04 05:59:34;;;;;;;20.03;15.47;;;;;;;;;;5075795;28;20460;-68
2021/07/04 06:02:01;;;;;;;17.37;15.47;;;;;;;;;;5075134;28;20792;-68
2021/07/04 06:04:29;;;;;;;16.70;14.77;;;;;;;;;;5075278;28;20480;-68
2021/07/04 06:06:56;;;;;;;18.27;16.10;;;;;;;;;;5075490;28;20937;-68
2021/07/04 06:09:23;;;;;;;18.83;16.47;;;;;;;;;;5075171;28;20441;-68
2021/07/04 06:11:51;;;;;;;18.17;16.00;;;;;;;;;;5074763;28;20458;-69
2021/07/04 06:14:19;;;;;;;20.10;15.80;;;;;;;;;;5075052;28;20449;-68
2021/07/04 06:16:47;;;;;;;17.40;14.90;;;;;;;;;;5074628;28;20452;-68
2021/07/04 06:19:14;;;;;;;18.30;16.43;;;;;;;;;;5074998;28;20860;-68
2021/07/04 06:21:42;;;;;;;18.23;16.00;;;;;;;;;;5074882;28;20479;-69
2021/07/04 06:24:09;;;;;;;21.83;16.37;;;;;;;;;;5074913;28;20547;-69
2021/07/04 06:26:37;;;;;;;22.00;17.30;;;;;;;;;;5075053;28;20532;-68
2021/07/04 06:29:05;;;;;;;16.93;15.33;;;;;;;;;;5074813;28;20527;-68
2021/07/04 06:31:32;;;;;;;16.83;15.03;;;;;;;;;;5074702;28;20483;-68
2021/07/04 06:34:01;;;;;;;22.33;15.47;;;;;;;;;;5074287;28;20436;-68
2021/07/04 06:36:28;;;;;;;17.30;15.70;;;;;;;;;;5074664;28;20441;-68
2021/07/04 06:38:56;;;;;;;23.57;16.70;;;;;;;;;;5074297;28;20995;-68
2021/07/04 06:41:23;;;;;;;19.37;15.93;;;;;;;;;;5074470;28;20505;-69
2021/07/04 06:43:51;;;;;;;16.93;15.33;;;;;;;;;;5074204;28;20432;-70
2021/07/04 06:46:18;;;;;;;20.30;18.10;;;;;;;;;;5073889;28;20579;-69
2021/07/04 06:48:45;;;;;;;16.90;15.10;;;;;;;;;;5074128;28;20472;-69
2021/07/04 06:51:14;;;;;;;16.27;13.70;;;;;;;;;;5074289;28;20479;-69
2021/07/04 06:53:41;;;;;;;16.90;14.83;;;;;;;;;;5074311;28;20491;-68
2021/07/04 06:56:09;;;;;;;15.63;13.93;;;;;;;;;;5074338;28;20520;-68
2021/07/04 06:58:36;;;;;;;16.67;14.63;;;;;;;;;;5074646;28;20536;-69
2021/07/04 07:01:03;;;;;;;17.07;15.30;;;;;;;;;;5074030;28;20479;-69
2021/07/04 07:03:31;;;;;;;15.47;13.87;;;;;;;;;;5074000;28;20477;-69
2021/07/04 07:05:58;;;;;;;12.50;11.30;;;;;;;;;;5074107;28;20441;-69
2021/07/04 07:08:26;;;;;;;16.07;13.27;;;;;;;;;;5074681;28;20433;-69
2021/07/04 07:10:53;;;;;;;15.93;13.27;;;;;;;;;;5074505;28;20449;-69
2021/07/04 07:13:21;;;;;;;20.00;14.53;;;;;;;;;;5073729;28;20491;-69
2021/07/04 07:15:48;;;;;;;13.83;12.30;;;;;;;;;;5073643;28;20551;-68
2021/07/04 07:18:15;;;;;;;18.00;15.30;;;;;;;;;;5073914;28;20442;-69
2021/07/04 07:20:43;;;;;;;18.30;15.00;;;;;;;;;;5073791;28;20507;-68
2021/07/04 07:23:10;;;;;;;16.60;14.77;;;;;;;;;;5073798;28;20549;-68
2021/07/04 07:25:39;;;;;;;16.40;14.70;;;;;;;;;;5073834;28;20557;-68
2021/07/04 07:28:06;;;;;;;16.53;14.43;;;;;;;;;;5073497;28;20446;-68
2021/07/04 07:30:33;;;;;;;14.37;12.83;;;;;;;;;;5073961;28;20472;-68
2021/07/04 07:33:00;;;;;;;17.33;14.03;;;;;;;;;;5073728;28;20451;-69
2021/07/04 07:35:30;;;;;;;15.60;14.10;;;;;;;;;;5073950;28;20439;-68
2021/07/04 07:38:00;;;;;;;15.23;13.60;;;;;;;;;;5073074;28;20871;-68
2021/07/04 07:40:29;;;;;;;17.03;14.40;;;;;;;;;;5074038;28;20427;-69
2021/07/04 07:42:58;;;;;;;19.10;14.80;;;;;;;;;;5073661;28;20834;-68
2021/07/04 07:45:25;;;;;;;15.50;13.90;;;;;;;;;;5073329;28;20439;-69
2021/07/04 07:47:52;;;;;;;15.90;14.30;;;;;;;;;;5073747;28;20564;-68
2021/07/04 07:50:19;;;;;;;18.33;14.13;;;;;;;;;;5073174;28;20452;-69
2021/07/04 07:52:47;;;;;;;15.07;13.67;;;;;;;;;;5073918;28;20532;-68
2021/07/04 07:55:14;;;;;;;43.27;29.83;;;;;;;;;;5073791;28;20533;-68
2021/07/04 07:57:42;;;;;;;17.03;15.33;;;;;;;;;;5073134;28;20523;-68
2021/07/04 08:00:12;;;;;;;16.93;15.13;;;;;;;;;;5073057;28;20525;-68
2021/07/04 08:02:41;;;;;;;15.83;14.23;;;;;;;;;;5073235;28;21019;-68
2021/07/04 08:05:08;;;;;;;16.30;14.60;;;;;;;;;;5073418;28;20437;-68
2021/07/04 08:07:36;;;;;;;17.80;15.07;;;;;;;;;;5073642;28;20528;-69
2021/07/04 08:10:04;;;;;;;17.40;14.10;;;;;;;;;;5073360;28;20445;-69
2021/07/04 08:12:31;;;;;;;19.40;16.50;;;;;;;;;;5072933;28;20541;-68
2021/07/04 08:14:58;;;;;;;17.47;15.53;;;;;;;;;;5072974;28;20803;-68
2021/07/04 08:17:27;;;;;;;17.17;15.47;;;;;;;;;;5073374;28;20452;-68
2021/07/04 08:19:54;;;;;;;19.47;16.27;;;;;;;;;;5073467;28;20465;-68
2021/07/04 08:22:21;;;;;;;18.47;16.67;;;;;;;;;;5073284;28;20477;-68
2021/07/04 08:24:48;;;;;;;16.97;15.17;;;;;;;;;;5073162;28;20529;-68
2021/07/04 08:27:16;;;;;;;19.23;17.43;;;;;;;;;;5073090;28;20442;-69
2021/07/04 08:29:43;;;;;;;19.40;17.63;;;;;;;;;;5072781;28;20477;-68
2021/07/04 08:32:11;;;;;;;21.70;18.43;;;;;;;;;;5072759;28;20935;-68
2021/07/04 08:34:39;;;;;;;16.70;15.13;;;;;;;;;;5073030;28;20512;-68
2021/07/04 08:37:06;;;;;;;18.73;16.63;;;;;;;;;;5073094;28;20520;-68
2021/07/04 08:39:34;;;;;;;18.67;16.73;;;;;;;;;;5072952;28;20448;-68
2021/07/04 08:42:01;;;;;;;22.57;17.87;;;;;;;;;;5072655;28;20476;-68
2021/07/04 08:44:28;;;;;;;21.40;16.40;;;;;;;;;;5072679;28;20532;-68
2021/07/04 08:46:55;;;;;;;19.90;17.80;;;;;;;;;;5072636;28;20473;-68
2021/07/04 08:49:22;;;;;;;19.57;17.47;;;;;;;;;;5076284;28;20569;-68
2021/07/04 08:51:51;;;;;;;16.90;15.20;;;;;;;;;;5076680;28;20439;-68
2021/07/04 08:54:18;;;;;;;17.77;15.97;;;;;;;;;;5076609;28;20527;-68
2021/07/04 08:56:48;;;;;;;18.40;16.70;;;;;;;;;;5076153;28;20444;-68
2021/07/04 08:59:15;;;;;;;18.53;16.53;;;;;;;;;;5076521;28;20446;-68
2021/07/04 09:01:47;;;;;;;19.80;16.40;;;;;;;;;;5076335;28;20487;-68
2021/07/04 09:04:15;;;;;;;16.33;14.50;;;;;;;;;;5077009;28;20434;-68
2021/07/04 09:06:43;;;;;;;17.00;15.27;;;;;;;;;;5076366;28;20439;-68
2021/07/04 09:09:16;;;;;;;17.67;15.77;;;;;;;;;;5075746;28;21004;-68
2021/07/04 09:12:08;;;;;;;17.00;15.47;;;;;;;;;;5075974;28;20473;-68
2021/07/04 09:14:36;;;;;;;21.87;15.10;;;;;;;;;;5070747;28;20805;-68
2021/07/04 09:17:05;;;;;;;19.70;16.20;;;;;;;;;;5075924;28;20446;-69
2021/07/04 09:19:32;;;;;;;18.33;16.43;;;;;;;;;;5076175;28;20523;-68
2021/07/04 09:22:01;;;;;;;19.10;16.37;;;;;;;;;;5076585;28;20981;-68
2021/07/04 09:24:30;;;;;;;17.20;15.33;;;;;;;;;;5076082;28;20432;-68
2021/07/04 09:26:58;;;;;;;21.10;16.00;;;;;;;;;;5064340;28;20533;-69
2021/07/04 09:29:45;;;;;;;19.00;17.20;;;;;;;;;;5075138;28;20495;-69
2021/07/04 09:32:17;;;;;;;19.30;17.30;;;;;;;;;;5076575;28;20526;-68
2021/07/04 09:34:56;;;;;;;18.40;15.63;;;;;;;;;;5076346;28;20464;-68
2021/07/04 09:37:28;;;;;;;16.93;14.73;;;;;;;;;;5075931;28;20765;-68
2021/07/04 09:40:07;;;;;;;16.97;15.17;;;;;;;;;;5076322;28;20429;-68
2021/07/04 09:42:35;;;;;;;16.43;14.77;;;;;;;;;;5076045;28;20500;-68
2021/07/04 09:45:02;;;;;;;18.43;16.53;;;;;;;;;;5075286;28;20934;-68
2021/07/04 09:47:29;;;;;;;16.67;15.00;;;;;;;;;;5075251;28;20476;-68
2021/07/04 09:50:02;;;;;;;17.33;15.50;;;;;;;;;;5075313;28;20540;-69
2021/07/04 09:52:30;;;;;;;17.00;15.20;;;;;;;;;;5075330;28;20431;-68
2021/07/04 09:55:00;;;;;;;18.37;16.57;;;;;;;;;;5075007;28;20436;-68
2021/07/04 09:57:28;;;;;;;17.37;15.70;;;;;;;;;;5075423;28;20471;-68
2021/07/04 10:00:15;;;;;;;17.20;15.60;;;;;;;;;;5074187;28;20479;-68
2021/07/04 10:02:42;;;;;;;16.37;14.77;;;;;;;;;;5075297;28;20480;-68
2021/07/04 10:05:13;;;;;;;16.80;15.10;;;;;;;;;;5075306;28;20440;-68
2021/07/04 10:07:41;;;;;;;18.13;15.13;;;;;;;;;;5075383;28;20453;-68
2021/07/04 10:10:10;;;;;;;14.97;13.60;;;;;;;;;;5074918;28;20531;-69
2021/07/04 10:12:38;;;;;;;15.93;14.43;;;;;;;;;;5075140;28;20451;-69
2021/07/04 10:15:05;;;;;;;14.80;13.30;;;;;;;;;;5075114;28;20447;-68
2021/07/04 10:17:33;;;;;;;17.23;14.67;;;;;;;;;;5075497;28;20562;-68
2021/07/04 10:20:01;;;;;;;14.30;13.00;;;;;;;;;;5075368;28;20440;-68
2021/07/04 10:22:32;;;;;;;16.50;14.90;;;;;;;;;;5074517;28;20508;-69
2021/07/04 10:25:00;;;;;;;16.23;14.47;;;;;;;;;;5075012;28;20457;-68
2021/07/04 10:27:29;;;;;;;16.10;14.40;;;;;;;;;;5074923;28;20482;-68
2021/07/04 10:29:56;;;;;;;15.23;13.87;;;;;;;;;;5074763;28;20439;-68
2021/07/04 10:32:23;;;;;;;14.70;13.30;;;;;;;;;;5074834;28;20471;-68
2021/07/04 10:34:52;;;;;;;14.00;12.70;;;;;;;;;;5074637;28;20443;-68
2021/07/04 10:37:30;;;;;;;14.23;12.80;;;;;;;;;;5074544;28;20434;-68
2021/07/04 10:40:09;;;;;;;16.63;13.77;;;;;;;;;;5074734;28;20512;-68
2021/07/04 10:42:38;;;;;;;15.93;13.40;;;;;;;;;;5074178;28;20476;-68
2021/07/04 10:45:06;;;;;;;15.03;13.47;;;;;;;;;;5074806;28;20433;-68
2021/07/04 10:47:35;;;;;;;16.80;13.83;;;;;;;;;;5074676;28;20473;-68
2021/07/04 10:50:09;;;;;;;14.97;13.57;;;;;;;;;;5074425;28;20807;-68
2021/07/04 10:52:41;;;;;;;16.33;14.63;;;;;;;;;;5074552;28;20429;-68
2021/07/04 10:55:12;;;;;;;15.77;14.23;;;;;;;;;;5074178;28;20443;-68
2021/07/04 10:57:54;;;;;;;13.60;12.10;;;;;;;;;;5074586;28;20786;-68
2021/07/04 11:00:24;;;;;;;12.97;11.87;;;;;;;;;;5074386;28;20407;-68
2021/07/04 11:02:53;;;;;;;12.03;10.43;;;;;;;;;;5073792;28;20569;-68
2021/07/04 11:05:36;;;;;;;11.53;10.63;;;;;;;;;;5073831;28;20454;-68
2021/07/04 11:08:09;;;;;;;11.50;10.40;;;;;;;;;;5073872;28;20441;-68
2021/07/04 11:10:37;;;;;;;11.80;9.83;;;;;;;;;;5074315;28;20503;-68
2021/07/04 11:13:25;;;;;;;10.73;9.53;;;;;;;;;;5073731;28;20441;-68
2021/07/04 11:16:06;;;;;;;10.50;9.50;;;;;;;;;;5074225;28;20460;-68
2021/07/04 11:18:39;;;;;;;10.00;9.10;;;;;;;;;;5073742;28;20465;-68
2021/07/04 11:21:06;;;;;;;9.30;8.50;;;;;;;;;;5073549;28;20990;-69
2021/07/04 11:23:33;;;;;;;8.23;7.27;;;;;;;;;;5073854;28;20500;-68
2021/07/04 11:26:01;;;;;;;10.63;9.47;;;;;;;;;;5073386;28;20451;-68
2021/07/04 11:28:29;;;;;;;9.90;9.03;;;;;;;;;;5073995;28;20543;-68
2021/07/04 11:31:19;;;;;;;10.33;9.33;;;;;;;;;;5073768;28;20443;-68
2021/07/04 11:33:48;;;;;;;11.10;9.97;;;;;;;;;;5073515;28;20812;-69
2021/07/04 11:36:22;;;;;;;9.23;8.37;;;;;;;;;;5073413;28;20533;-69
2021/07/04 11:38:50;;;;;;;8.68;7.88;;;;;;;;;;5073608;28;20472;-68
2021/07/04 11:41:19;;;;;;;8.90;8.10;;;;;;;;;;5073462;28;20194;-68
2021/07/04 11:43:47;;;;;;;10.20;9.13;;;;;;;;;;5073764;28;20460;-68
2021/07/04 11:46:15;;;;;;;7.83;7.23;;;;;;;;;;5073417;28;20472;-69
2021/07/04 11:48:48;;;;;;;7.67;6.97;;;;;;;;;;5074001;28;20524;-68
2021/07/04 11:51:22;;;;;;;8.90;8.10;;;;;;;;;;5073380;28;20810;-68
2021/07/04 11:53:50;;;;;;;8.60;7.70;;;;;;;;;;5073388;28;20471;-68
2021/07/04 11:56:18;;;;;;;10.83;7.50;;;;;;;;;;5073597;28;20440;-68
2021/07/04 11:58:45;;;;;;;7.87;7.17;;;;;;;;;;5073189;28;20956;-68
2021/07/04 12:01:16;;;;;;;8.20;7.40;;;;;;;;;;5074034;28;20536;-68
2021/07/04 12:03:44;;;;;;;9.90;7.30;;;;;;;;;;5073398;28;20987;-68
2021/07/04 12:06:12;;;;;;;8.90;8.00;;;;;;;;;;5073208;28;20863;-68
2021/07/04 12:08:52;;;;;;;9.20;8.40;;;;;;;;;;5073836;28;20435;-68
2021/07/04 12:11:20;;;;;;;8.47;7.60;;;;;;;;;;5073071;28;20456;-68
2021/07/04 12:13:47;;;;;;;8.50;7.50;;;;;;;;;;5073030;28;20546;-68
2021/07/04 12:16:15;;;;;;;8.20;7.33;;;;;;;;;;5073714;28;20631;-68
2021/07/04 12:18:43;;;;;;;8.30;7.60;;;;;;;;;;5073496;28;20556;-68
2021/07/04 12:21:11;;;;;;;8.20;7.50;;;;;;;;;;5073643;28;20440;-67
2021/07/04 12:23:39;;;;;;;6.50;5.90;;;;;;;;;;5075280;28;20470;-68
2021/07/04 12:26:07;;;;;;;4.17;3.87;;;;;;;;;;5076640;28;20997;-68
2021/07/04 12:28:35;;;;;;;8.00;4.67;;;;;;;;;;5077067;28;20833;-68
2021/07/04 12:31:02;;;;;;;4.93;3.73;;;;;;;;;;5077141;28;20437;-68
2021/07/04 12:33:30;;;;;;;3.83;3.60;;;;;;;;;;5076805;28;20447;-70
2021/07/04 12:35:58;;;;;;;2.60;2.40;;;;;;;;;;5077100;28;20444;-69
2021/07/04 12:38:26;;;;;;;7.30;3.60;;;;;;;;;;5076977;28;20547;-67
2021/07/04 12:40:56;;;;;;;3.00;2.70;;;;;;;;;;5077445;28;20437;-66
2021/07/04 12:43:28;;;;;;;14.27;3.77;;;;;;;;;;5076529;28;20465;-67
2021/07/04 12:45:55;;;;;;;6.27;3.30;;;;;;;;;;5077038;28;20476;-68
2021/07/04 12:48:23;;;;;;;7.07;4.67;;;;;;;;;;5076739;28;20516;-68
2021/07/04 12:50:52;;;;;;;6.00;5.00;;;;;;;;;;5076734;28;20516;-70
2021/07/04 12:53:20;;;;;;;4.63;4.00;;;;;;;;;;5076432;28;20442;-70
2021/07/04 12:55:48;;;;;;;5.50;4.80;;;;;;;;;;5076656;28;20498;-70
2021/07/04 12:58:28;;;;;;;5.33;4.00;;;;;;;;;;5076318;28;20942;-70
2021/07/04 13:00:56;;;;;;;4.60;4.20;;;;;;;;;;5076338;28;20511;-70
2021/07/04 13:03:39;;;;;;;5.57;4.03;;;;;;;;;;5076188;28;20581;-71
2021/07/04 13:06:07;;;;;;;5.37;3.90;;;;;;;;;;5076139;28;20439;-70
2021/07/04 13:08:35;;;;;;;5.10;4.60;;;;;;;;;;5076770;28;20491;-71
2021/07/04 13:11:03;;;;;;;5.40;3.80;;;;;;;;;;5076004;28;20445;-71
2021/07/04 13:13:31;;;;;;;5.00;3.67;;;;;;;;;;5076907;28;20432;-72
2021/07/04 13:16:13;;;;;;;5.93;3.90;;;;;;;;;;5076028;28;20543;-72
2021/07/04 13:18:40;;;;;;;3.60;3.30;;;;;;;;;;5075970;28;20914;-73
2021/07/04 13:21:07;;;;;;;4.10;3.70;;;;;;;;;;5075363;28;20471;-73
2021/07/04 13:23:34;;;;;;;8.97;4.13;;;;;;;;;;5075706;28;20476;-72
2021/07/04 13:26:02;;;;;;;3.90;3.40;;;;;;;;;;5075829;28;20982;-72
2021/07/04 13:28:32;;;;;;;4.20;3.80;;;;;;;;;;5075821;28;20533;-72
2021/07/04 13:31:00;;;;;;;5.03;3.83;;;;;;;;;;5075810;28;20450;-73
2021/07/04 13:33:28;;;;;;;8.17;4.43;;;;;;;;;;5075715;28;20453;-72
2021/07/04 13:35:55;;;;;;;5.57;4.00;;;;;;;;;;5074746;28;20992;-72
2021/07/04 13:38:23;;;;;;;8.87;4.60;;;;;;;;;;5076773;28;20473;-72
2021/07/04 13:40:51;;;;;;;5.33;4.37;;;;;;;;;;5075648;28;20536;-72
2021/07/04 13:43:18;;;;;;;3.57;3.27;;;;;;;;;;5075565;28;20475;-73
2021/07/04 13:45:50;;;;;;;4.70;4.30;;;;;;;;;;5075381;28;20441;-72
2021/07/04 13:48:18;;;;;;;4.40;4.00;;;;;;;;;;5076253;28;20528;-73
2021/07/04 13:50:46;;;;;;;4.73;3.87;;;;;;;;;;5075285;28;20437;-73
2021/07/04 13:53:14;;;;;;;4.97;4.50;;;;;;;;;;5075306;28;20528;-73
2021/07/04 13:55:42;;;;;;;4.57;4.17;;;;;;;;;;5075742;28;20854;-73
2021/07/04 13:58:09;;;;;;;6.77;4.80;;;;;;;;;;5075254;28;20540;-73
2021/07/04 14:00:37;;;;;;;4.90;4.50;;;;;;;;;;5075146;28;20958;-72
2021/07/04 14:03:07;;;;;;;6.10;5.60;;;;;;;;;;5075399;28;20820;-72
2021/07/04 14:05:35;;;;;;;6.43;5.83;;;;;;;;;;5075373;28;20452;-73
2021/07/04 14:08:02;;;;;;;6.83;6.13;;;;;;;;;;5075139;28;20482;-73
2021/07/04 14:10:29;;;;;;;6.90;5.50;;;;;;;;;;5075415;28;20512;-73
2021/07/04 14:12:57;;;;;;;6.83;6.27;;;;;;;;;;5075011;28;20433;-73
2021/07/04 14:15:24;;;;;;;8.67;7.40;;;;;;;;;;5075084;28;20433;-73
2021/07/04 14:17:51;;;;;;;9.60;6.37;;;;;;;;;;5074840;28;20436;-73
2021/07/04 14:20:20;;;;;;;8.50;6.80;;;;;;;;;;5074941;28;20488;-72
2021/07/04 14:22:48;;;;;;;6.97;6.27;;;;;;;;;;5074637;28;20436;-73
2021/07/04 14:25:16;;;;;;;7.50;6.30;;;;;;;;;;5075288;28;20429;-72
2021/07/04 14:27:44;;;;;;;8.20;6.83;;;;;;;;;;5074950;28;20535;-73
2021/07/04 14:30:13;;;;;;;10.93;7.23;;;;;;;;;;5074852;28;20846;-72